Time;durP1;ratioP1;P1;durP2;ratioP2;P2;SDS_P1;SDS_P2;PMS_P1;PMS_P2;Temp;Humidity;BMP_temperature;BMP_pressure;BME280_temperature;BME280_humidity;BME280_pressure;Samples;Min_cycle;Max_cycle;Signal;HPM_P1;HPM_P2
2021/12/12 00:01:30;;;;;;;11.18;2.78;;;;;;;10.18;83.16;99964.81;5003064;28;20085;-55
2021/12/12 00:04:09;;;;;;;16.25;2.50;;;;;;;10.21;83.84;99964.81;5009466;28;20038;-58
2021/12/12 00:06:39;;;;;;;12.32;1.92;;;;;;;10.21;83.49;99958.75;5008163;28;20100;-53
2021/12/12 00:09:15;;;;;;;11.73;2.45;;;;;;;10.21;83.17;99959.63;5004878;28;20072;-54
2021/12/12 00:11:41;;;;;;;13.55;1.85;;;;;;;10.21;83.40;99956.16;5000374;28;20045;-56
2021/12/12 00:14:14;;;;;;;10.60;2.30;;;;;;;10.22;83.58;99956.16;5005411;28;20042;-57
2021/12/12 00:16:42;;;;;;;10.65;2.00;;;;;;;10.24;83.52;99944.06;5000875;28;20851;-55
2021/12/12 00:19:09;;;;;;;12.43;1.52;;;;;;;10.24;83.62;99954.41;5004756;28;20112;-57
2021/12/12 00:21:40;;;;;;;13.70;2.35;;;;;;;10.26;83.69;99962.19;5004527;28;20468;-58
2021/12/12 00:24:11;;;;;;;8.88;2.30;;;;;;;10.25;83.74;99971.69;5001554;28;20486;-53
2021/12/12 00:26:38;;;;;;;16.42;2.17;;;;;;;10.25;83.20;99979.44;5007559;28;20069;-59
2021/12/12 00:29:06;;;;;;;12.00;2.20;;;;;;;10.28;83.46;99982.03;5001509;28;20089;-56
2021/12/12 00:31:33;;;;;;;12.30;2.22;;;;;;;10.28;83.17;99971.69;5008843;28;20054;-55
2021/12/12 00:34:01;;;;;;;15.35;1.35;;;;;;;10.27;83.77;99969.94;5007052;28;20077;-56
2021/12/12 00:36:29;;;;;;;16.90;2.22;;;;;;;10.27;83.29;99964.75;5000801;28;20108;-55
2021/12/12 00:39:03;;;;;;;18.35;2.80;;;;;;;10.29;83.49;99965.63;4993054;28;20053;-57
2021/12/12 00:41:34;;;;;;;14.85;1.75;;;;;;;10.29;82.98;99977.69;5002499;28;20050;-55
2021/12/12 00:44:01;;;;;;;12.48;1.90;;;;;;;10.29;83.28;99963.03;5004874;28;20042;-55
2021/12/12 00:46:28;;;;;;;16.85;2.13;;;;;;;10.32;82.92;99961.28;5006032;28;20038;-55
2021/12/12 00:48:55;;;;;;;15.88;2.50;;;;;;;10.31;83.39;99962.16;5004099;28;20125;-53
2021/12/12 00:51:27;;;;;;;13.07;1.90;;;;;;;10.33;83.30;99963.88;5002630;28;20072;-57
2021/12/12 00:53:55;;;;;;;5.50;2.03;;;;;;;10.34;83.64;99969.94;4995959;28;20050;-57
2021/12/12 00:56:22;;;;;;;14.20;2.10;;;;;;;10.37;83.87;99977.69;4999158;28;20066;-55
2021/12/12 00:58:49;;;;;;;12.02;1.85;;;;;;;10.37;83.22;99978.53;4995978;28;20100;-54
2021/12/12 01:01:23;;;;;;;10.15;2.70;;;;;;;10.39;83.54;99965.59;4993928;28;20383;-55
2021/12/12 01:03:55;;;;;;;8.55;1.35;;;;;;;10.38;83.64;99966.47;4999586;28;20057;-52
2021/12/12 01:06:23;;;;;;;9.63;1.85;;;;;;;10.39;82.86;99975.94;4997124;28;20139;-56
2021/12/12 01:08:52;;;;;;;10.38;2.80;;;;;;;10.40;83.03;99975.94;4997765;28;20037;-56
2021/12/12 01:11:31;;;;;;;10.80;2.35;;;;;;;10.39;83.09;99973.34;5001547;28;20041;-53
2021/12/12 01:13:59;;;;;;;15.73;2.85;;;;;;;10.40;82.68;99990.59;5001081;28;20564;-55
2021/12/12 01:16:34;;;;;;;10.85;2.60;;;;;;;10.40;82.84;99990.59;5004715;28;20555;-56
2021/12/12 01:19:08;;;;;;;8.43;3.53;;;;;;;10.40;83.39;99996.66;4996903;28;20042;-54
2021/12/12 01:21:38;;;;;;;12.27;3.10;;;;;;;10.43;82.79;99989.75;4999647;28;20911;-57
2021/12/12 01:24:09;;;;;;;12.32;3.15;;;;;;;10.43;83.56;99994.94;4998338;28;20045;-54
2021/12/12 01:26:38;;;;;;;6.57;1.33;;;;;;;10.41;83.76;99994.94;4999237;28;20412;-56
2021/12/12 01:29:07;;;;;;;6.65;1.83;;;;;;;10.40;83.71;99990.59;5003559;28;20481;-51
2021/12/12 01:31:36;;;;;;;9.40;1.73;;;;;;;10.40;83.13;99994.06;5010643;28;20058;-55
2021/12/12 01:34:11;;;;;;;10.70;2.67;;;;;;;10.39;83.30;99991.47;5004847;28;20056;-56
2021/12/12 01:36:53;;;;;;;6.18;1.80;;;;;;;10.39;83.38;100000.13;5002384;28;20046;-57
2021/12/12 01:39:23;;;;;;;9.50;2.58;;;;;;;10.41;82.56;100002.72;5007822;28;20111;-52
2021/12/12 01:41:59;;;;;;;6.25;1.42;;;;;;;10.37;83.24;100001.00;5001317;28;20053;-52
2021/12/12 01:44:34;;;;;;;11.88;2.05;;;;;;;10.40;82.99;100006.16;5002759;28;20457;-54
2021/12/12 01:47:09;;;;;;;7.15;1.52;;;;;;;10.38;83.59;100005.31;5002396;28;20046;-53
2021/12/12 01:49:39;;;;;;;7.53;2.03;;;;;;;10.41;82.85;100003.56;4992829;28;20516;-57
2021/12/12 01:52:09;;;;;;;6.53;1.50;;;;;;;10.41;82.99;100000.13;4995676;28;20045;-52
2021/12/12 01:54:45;;;;;;;10.40;2.45;;;;;;;10.43;82.55;100006.13;4999456;28;20100;-51
2021/12/12 01:57:16;;;;;;;7.35;1.27;;;;;;;10.41;82.97;100005.31;5003533;28;20108;-55
2021/12/12 01:59:48;;;;;;;11.65;1.45;;;;;;;10.40;83.55;100006.16;4997230;28;20173;-51
2021/12/12 02:02:23;;;;;;;6.35;1.45;;;;;;;10.38;83.33;100007.91;5000274;28;20042;-56
2021/12/12 02:04:53;;;;;;;14.77;3.90;;;;;;;10.40;83.43;100016.50;4998169;28;20058;-55
2021/12/12 02:07:24;;;;;;;8.90;1.50;;;;;;;10.38;83.31;100018.25;4999353;28;20058;-54
2021/12/12 02:09:52;;;;;;;10.48;1.48;;;;;;;10.37;83.58;100019.13;5000732;28;20054;-56
2021/12/12 02:12:23;;;;;;;6.75;1.60;;;;;;;10.38;83.04;100024.31;4999239;28;20556;-54
2021/12/12 02:14:51;;;;;;;5.70;1.50;;;;;;;10.41;82.83;100023.44;5001237;28;20046;-58
2021/12/12 02:17:26;;;;;;;10.45;3.13;;;;;;;10.41;82.98;100023.44;4998970;28;20097;-53
2021/12/12 02:20:10;;;;;;;10.05;2.70;;;;;;;10.41;82.65;100028.59;4997256;28;20096;-56
2021/12/12 02:36:46;;;;;;;5.57;2.20;;;;;;;10.40;83.46;100024.28;5001489;28;20096;-56
2021/12/12 02:39:16;;;;;;;7.40;1.60;;;;;;;10.42;82.90;100027.72;4996726;28;20070;-55
2021/12/12 02:41:47;;;;;;;5.30;1.88;;;;;;;10.42;83.23;100030.31;5005735;28;20054;-56
2021/12/12 02:44:15;;;;;;;6.75;2.30;;;;;;;10.42;83.57;100032.91;5006878;28;20102;-54
2021/12/12 02:46:45;;;;;;;7.95;1.63;;;;;;;10.41;83.48;100039.81;5001684;28;20108;-55
2021/12/12 02:49:25;;;;;;;;;;;;;;;10.34;83.86;100037.25;4996863;28;20053;-53
2021/12/12 02:51:53;;;;;;;3.70;1.67;;;;;;;10.40;83.25;100044.97;4998379;28;19976;-55
2021/12/12 02:54:20;;;;;;;8.30;1.75;;;;;;;10.43;83.00;100047.56;5004615;28;20046;-58
2021/12/12 02:56:49;;;;;;;5.70;2.38;;;;;;;10.45;83.39;100039.84;5000312;28;20050;-58
2021/12/12 02:59:21;;;;;;;5.80;1.88;;;;;;;10.45;83.06;100040.72;5001211;28;20104;-57
2021/12/12 03:01:54;;;;;;;8.13;2.33;;;;;;;10.45;83.57;100035.53;5001091;28;20116;-54
2021/12/12 03:04:23;;;;;;;8.32;2.60;;;;;;;10.49;82.69;100036.38;5001644;28;20054;-51
2021/12/12 03:06:50;;;;;;;5.57;1.73;;;;;;;10.52;83.00;100046.72;4999681;28;20057;-55
2021/12/12 03:09:21;;;;;;;4.28;1.98;;;;;;;10.49;83.38;100037.25;5002660;28;20050;-57
2021/12/12 03:11:54;;;;;;;4.75;2.20;;;;;;;10.52;82.53;100038.97;5001640;28;20100;-57
2021/12/12 03:14:21;;;;;;;5.10;2.15;;;;;;;10.54;83.19;100039.84;5005513;28;20114;-54
2021/12/12 03:16:48;;;;;;;6.20;2.40;;;;;;;10.52;83.47;100039.84;5000916;28;20053;-55
2021/12/12 03:19:20;;;;;;;6.55;2.03;;;;;;;10.54;83.32;100045.84;5001421;28;20046;-55
2021/12/12 03:21:48;;;;;;;5.88;2.38;;;;;;;10.55;83.30;100038.97;5005912;28;20046;-57
2021/12/12 03:24:19;;;;;;;5.65;3.33;;;;;;;10.57;83.00;100044.13;5002109;28;20437;-51
2021/12/12 03:26:50;;;;;;;7.68;2.15;;;;;;;10.58;82.75;100040.66;5006787;28;20054;-55
2021/12/12 03:29:17;;;;;;;5.28;2.22;;;;;;;10.57;83.23;100046.72;5000054;28;20528;-57
2021/12/12 03:31:50;;;;;;;8.20;2.25;;;;;;;10.59;83.41;100047.56;5005741;28;20038;-55
2021/12/12 03:34:21;;;;;;;8.27;3.38;;;;;;;10.60;83.48;100041.53;5001644;28;20042;-54
2021/12/12 03:36:50;;;;;;;6.57;2.70;;;;;;;10.61;82.80;100040.66;5004991;28;20054;-55
2021/12/12 03:39:20;;;;;;;5.65;1.98;;;;;;;10.61;82.88;100045.84;5001871;28;20050;-57
2021/12/12 03:41:48;;;;;;;5.97;1.90;;;;;;;10.59;83.64;100047.56;5006430;28;20052;-56
2021/12/12 03:44:18;;;;;;;5.95;2.03;;;;;;;10.61;83.25;100049.28;5000992;28;20093;-57
2021/12/12 03:46:48;;;;;;;3.55;1.77;;;;;;;10.61;82.81;100045.84;5002017;28;20053;-58
2021/12/12 03:49:16;;;;;;;4.38;2.30;;;;;;;10.61;83.58;100056.22;5005745;28;20056;-55
2021/12/12 03:51:49;;;;;;;4.45;2.38;;;;;;;10.62;82.66;100057.91;5003720;28;20104;-57
2021/12/12 03:54:17;;;;;;;5.53;2.38;;;;;;;10.60;83.60;100059.66;5006813;28;20045;-57
2021/12/12 03:56:46;;;;;;;5.70;2.30;;;;;;;10.61;82.98;100059.63;5004194;28;20115;-54
2021/12/12 03:59:14;;;;;;;4.45;2.03;;;;;;;10.62;82.43;100055.34;5002988;28;20034;-56
2021/12/12 04:01:47;;;;;;;5.15;2.15;;;;;;;10.60;83.05;100059.66;4995244;28;20197;-54
2021/12/12 04:04:22;;;;;;;4.00;1.85;;;;;;;10.58;82.41;100058.81;4994886;28;20109;-58
2021/12/12 04:06:50;;;;;;;4.10;1.95;;;;;;;10.57;82.48;100060.50;4995533;28;20592;-57
2021/12/12 04:09:18;;;;;;;3.03;1.52;;;;;;;10.57;82.45;100064.84;5002353;28;20042;-57
2021/12/12 04:11:48;;;;;;;3.78;1.90;;;;;;;10.53;82.77;100064.84;5005643;28;20050;-56
2021/12/12 04:14:16;;;;;;;4.65;1.85;;;;;;;10.53;82.88;100058.81;5001317;28;20049;-57
2021/12/12 04:16:48;;;;;;;3.85;2.80;;;;;;;10.52;82.78;100057.09;4997860;28;20445;-55
2021/12/12 04:19:15;;;;;;;4.95;2.47;;;;;;;10.51;82.92;100066.56;5000198;28;20121;-56
2021/12/12 04:21:43;;;;;;;5.93;3.90;;;;;;;10.50;83.07;100064.84;5000415;28;20448;-55
2021/12/12 04:24:10;;;;;;;4.13;2.05;;;;;;;10.52;83.71;100068.31;5001088;28;20509;-56
2021/12/12 04:26:40;;;;;;;6.75;3.30;;;;;;;10.51;83.86;100066.56;5002052;28;20406;-55
2021/12/12 04:29:12;;;;;;;4.93;2.97;;;;;;;10.55;83.14;100062.25;5002993;28;20428;-58
2021/12/12 04:31:43;;;;;;;4.63;2.25;;;;;;;10.54;82.82;100069.16;5002716;28;20054;-57
2021/12/12 04:34:10;;;;;;;5.47;1.98;;;;;;;10.56;83.25;100068.28;5001947;28;21152;-56
2021/12/12 04:36:41;;;;;;;3.75;1.83;;;;;;;10.58;82.91;100066.56;5003525;28;20046;-57
2021/12/12 04:39:13;;;;;;;4.22;2.13;;;;;;;10.59;83.15;100070.88;5005047;28;20054;-57
2021/12/12 04:41:41;;;;;;;4.82;2.20;;;;;;;10.60;82.88;100082.97;5005457;28;20049;-55
2021/12/12 04:44:08;;;;;;;6.78;2.00;;;;;;;10.60;82.63;100076.06;4997732;28;20053;-58
2021/12/12 04:52:40;;;;;;;4.68;2.33;;;;;;;10.54;83.76;100100.22;5001782;28;20762;-58
2021/12/12 04:55:15;;;;;;;2.97;1.67;;;;;;;10.58;82.73;100102.81;5002099;28;20050;-51
2021/12/12 04:57:48;;;;;;;3.83;2.03;;;;;;;10.59;83.48;100100.25;4996792;28;20049;-55
2021/12/12 05:00:21;;;;;;;4.20;2.03;;;;;;;10.60;82.86;100095.94;5005523;28;20100;-55
2021/12/12 05:03:01;;;;;;;6.50;1.98;;;;;;;10.60;83.00;100095.94;4998272;28;20085;-56
2021/12/12 05:05:38;;;;;;;4.28;1.85;;;;;;;10.60;82.34;100095.94;4997457;28;20062;-55
2021/12/12 05:08:11;;;;;;;5.03;1.95;;;;;;;10.60;83.33;100101.09;5007484;28;20107;-56
2021/12/12 05:10:44;;;;;;;4.70;1.92;;;;;;;10.60;83.31;100096.78;4997239;28;20108;-56
2021/12/12 05:13:16;;;;;;;4.32;2.00;;;;;;;10.61;82.24;100110.59;5005340;28;20042;-55
2021/12/12 05:15:48;;;;;;;4.28;2.10;;;;;;;10.60;82.48;100108.88;4995882;28;20084;-57
2021/12/12 05:18:26;;;;;;;3.70;1.90;;;;;;;10.58;83.22;100108.00;5002761;28;20050;-57
2021/12/12 05:20:58;;;;;;;4.22;1.88;;;;;;;10.56;82.88;100114.91;5004063;28;20520;-56
2021/12/12 05:23:28;;;;;;;5.07;1.73;;;;;;;10.53;82.81;100116.66;5001914;28;20108;-56
2021/12/12 05:26:06;;;;;;;4.10;2.22;;;;;;;10.49;82.95;100114.94;5000625;28;20112;-55
2021/12/12 05:28:39;;;;;;;3.13;1.58;;;;;;;10.50;83.23;100116.66;4996274;28;20061;-56
2021/12/12 05:31:08;;;;;;;2.97;1.85;;;;;;;10.47;82.77;100111.47;5005136;28;20069;-56
2021/12/12 05:33:36;;;;;;;3.13;1.70;;;;;;;10.45;82.14;100123.56;4999863;28;20535;-56
2021/12/12 05:36:07;;;;;;;3.65;1.75;;;;;;;10.45;82.53;100118.38;5001117;28;20112;-53
2021/12/12 05:38:34;;;;;;;3.65;2.03;;;;;;;10.44;82.86;100127.00;5004039;28;20062;-55
2021/12/12 05:41:02;;;;;;;3.00;1.55;;;;;;;10.44;83.06;100131.31;4998365;28;20493;-53
2021/12/12 05:43:29;;;;;;;3.08;1.70;;;;;;;10.45;82.66;100135.63;4998560;28;20120;-55
2021/12/12 05:45:56;;;;;;;3.00;1.63;;;;;;;10.41;82.75;100145.13;5000843;28;20050;-57
2021/12/12 05:48:23;;;;;;;4.50;2.85;;;;;;;10.45;83.12;100144.28;5002978;28;20605;-55
2021/12/12 05:50:51;;;;;;;3.45;1.67;;;;;;;10.46;82.74;100142.53;5004067;28;20058;-57
2021/12/12 05:53:19;;;;;;;3.45;1.90;;;;;;;10.46;82.64;100146.00;5003638;28;20046;-58
2021/12/12 05:55:47;;;;;;;3.22;1.83;;;;;;;10.46;82.62;100143.41;4996688;28;20050;-55
2021/12/12 05:58:17;;;;;;;3.15;1.83;;;;;;;10.46;83.10;100145.13;4998592;28;20054;-55
2021/12/12 06:00:49;;;;;;;5.60;3.08;;;;;;;10.46;82.76;100145.13;5003296;28;20449;-54
2021/12/12 06:03:20;;;;;;;2.15;1.63;;;;;;;10.45;82.32;100159.81;5001684;28;20042;-57
2021/12/12 06:05:47;;;;;;;2.25;1.52;;;;;;;10.42;82.08;100154.59;5014586;28;20488;-55
2021/12/12 06:08:22;;;;;;;3.38;1.67;;;;;;;10.41;83.05;100158.06;5004898;28;20053;-56
2021/12/12 06:10:51;;;;;;;3.35;1.67;;;;;;;10.41;82.80;100158.06;5000421;28;20049;-54
2021/12/12 06:13:19;;;;;;;4.00;1.98;;;;;;;10.41;82.76;100163.25;5002814;28;20058;-55
2021/12/12 06:15:50;;;;;;;3.25;1.85;;;;;;;10.38;82.67;100160.66;5001632;28;20551;-56
2021/12/12 06:18:20;;;;;;;4.30;2.10;;;;;;;10.41;82.72;100163.25;5006604;28;20046;-54
2021/12/12 06:20:47;;;;;;;;;;;;;;;10.29;82.45;100170.16;5004018;28;20046;-51
2021/12/12 06:23:15;;;;;;;3.33;2.22;;;;;;;10.36;82.45;100176.19;5006308;28;20348;-55
2021/12/12 06:25:43;;;;;;;3.03;1.70;;;;;;;10.40;82.78;100187.38;5001248;28;20050;-59
2021/12/12 06:28:14;;;;;;;3.10;2.42;;;;;;;10.39;82.66;100185.66;5006916;28;20383;-57
2021/12/12 06:30:42;;;;;;;4.55;3.38;;;;;;;10.40;82.67;100192.56;5006327;28;20421;-57
2021/12/12 06:33:10;;;;;;;4.55;1.63;;;;;;;10.39;82.35;100180.50;5003847;28;20100;-52
2021/12/12 06:35:38;;;;;;;3.78;2.90;;;;;;;10.39;82.57;100180.50;5005052;28;20387;-56
2021/12/12 06:38:08;;;;;;;2.92;1.50;;;;;;;10.39;82.33;100190.84;5001904;28;20772;-56
2021/12/12 06:40:36;;;;;;;3.45;1.98;;;;;;;10.39;82.45;100190.84;5003725;28;20050;-55
2021/12/12 06:43:05;;;;;;;3.85;1.73;;;;;;;10.39;82.62;100193.44;4997923;28;20054;-54
2021/12/12 06:45:34;;;;;;;4.13;1.70;;;;;;;10.34;82.69;100192.59;5003020;28;20046;-57
2021/12/12 06:48:04;;;;;;;3.35;1.65;;;;;;;10.29;82.34;100190.84;5005403;28;20468;-56
2021/12/12 06:50:34;;;;;;;2.92;1.65;;;;;;;10.28;82.12;100198.63;5005771;28;20053;-52
2021/12/12 06:53:02;;;;;;;3.83;1.90;;;;;;;10.23;82.21;100198.59;4999721;28;20050;-55
2021/12/12 06:55:30;;;;;;;3.28;1.70;;;;;;;10.25;81.91;100196.03;5002718;28;20121;-56
2021/12/12 06:57:57;;;;;;;3.83;1.90;;;;;;;10.23;82.74;100201.19;5006237;28;20528;-53
2021/12/12 07:00:26;;;;;;;3.90;2.05;;;;;;;10.19;82.53;100203.75;5001028;28;20560;-55
2021/12/12 07:02:53;;;;;;;3.55;1.65;;;;;;;10.15;81.80;100197.75;5013066;28;20049;-53
2021/12/12 07:05:23;;;;;;;3.22;1.95;;;;;;;10.12;81.83;100198.59;5001906;28;20048;-54
2021/12/12 07:07:52;;;;;;;2.72;1.38;;;;;;;10.10;82.75;100204.63;5001945;28;20045;-58
2021/12/12 07:10:23;;;;;;;5.18;2.65;;;;;;;10.08;81.98;100201.16;4996661;28;20441;-57
2021/12/12 07:12:55;;;;;;;4.47;2.17;;;;;;;10.07;82.25;100204.63;5001363;28;20112;-56
2021/12/12 07:15:25;;;;;;;4.53;2.05;;;;;;;10.05;82.06;100211.50;4998917;28;20049;-56
2021/12/12 07:17:55;;;;;;;3.80;2.15;;;;;;;10.04;82.24;100210.66;5010639;28;20096;-53
2021/12/12 07:20:22;;;;;;;4.55;2.00;;;;;;;10.05;82.48;100211.50;4999956;28;20140;-56
2021/12/12 07:22:49;;;;;;;3.33;1.70;;;;;;;10.04;82.43;100223.59;5003032;28;20050;-52
2021/12/12 07:25:19;;;;;;;5.22;1.60;;;;;;;10.06;82.21;100221.03;5001081;28;20049;-57
2021/12/12 07:27:46;;;;;;;4.60;1.83;;;;;;;10.08;82.45;100216.69;5002205;28;20104;-55
2021/12/12 07:30:12;;;;;;;5.50;1.85;;;;;;;10.08;82.67;100211.53;5005697;28;20509;-55
2021/12/12 07:32:39;;;;;;;3.80;1.90;;;;;;;10.08;82.01;100221.88;5007171;28;20045;-56
2021/12/12 07:35:10;;;;;;;4.07;1.58;;;;;;;10.06;82.39;100219.28;5001966;28;20042;-56
2021/12/12 07:37:37;;;;;;;4.32;2.08;;;;;;;10.05;82.31;100221.88;5001423;28;20077;-57
2021/12/12 07:40:06;;;;;;;4.20;1.90;;;;;;;10.02;81.99;100221.00;5005008;28;20096;-56
2021/12/12 07:42:33;;;;;;;4.18;2.30;;;;;;;10.00;82.43;100222.72;5004574;28;20437;-54
2021/12/12 07:45:03;;;;;;;3.08;1.58;;;;;;;10.01;82.45;100221.00;4998733;28;20053;-55
2021/12/12 07:47:30;;;;;;;2.55;1.50;;;;;;;10.02;82.37;100223.59;5006473;28;20050;-57
2021/12/12 07:49:58;;;;;;;3.33;1.50;;;;;;;10.02;82.85;100228.78;5000111;28;20061;-54
2021/12/12 07:52:28;;;;;;;2.70;1.45;;;;;;;10.03;82.37;100235.66;4997347;28;20145;-56
2021/12/12 07:54:57;;;;;;;4.45;2.95;;;;;;;10.08;82.36;100229.63;4999790;28;20442;-54
2021/12/12 07:57:27;;;;;;;4.45;2.13;;;;;;;10.08;82.56;100221.88;5002101;28;20054;-57
2021/12/12 07:59:55;;;;;;;;;;;;;;;9.97;82.83;100233.06;4997835;28;20099;-56
2021/12/12 08:02:24;;;;;;;7.35;2.72;;;;;;;10.07;82.62;100235.69;5001141;28;19949;-54
2021/12/12 08:04:53;;;;;;;4.22;2.05;;;;;;;10.10;82.89;100239.13;4997396;28;20054;-52
2021/12/12 08:07:23;;;;;;;3.67;2.58;;;;;;;10.11;82.62;100237.41;4999754;28;20441;-58
2021/12/12 08:09:51;;;;;;;3.63;1.90;;;;;;;10.14;82.66;100247.78;4995664;28;20049;-56
2021/12/12 08:12:22;;;;;;;3.80;2.13;;;;;;;10.18;82.03;100259.00;5000156;28;20410;-57
2021/12/12 08:14:49;;;;;;;4.28;2.15;;;;;;;10.19;82.23;100256.41;5008601;28;20100;-54
2021/12/12 08:17:19;;;;;;;3.35;1.95;;;;;;;10.22;82.06;100261.59;5004158;28;20062;-57
2021/12/12 08:19:48;;;;;;;3.90;2.13;;;;;;;10.24;82.43;100262.44;4998119;28;20104;-55
2021/12/12 08:22:16;;;;;;;4.30;1.88;;;;;;;10.29;82.89;100258.16;4996500;28;20062;-56
2021/12/12 08:24:43;;;;;;;3.67;1.45;;;;;;;10.28;82.76;100256.44;4996723;28;20848;-59
2021/12/12 08:27:11;;;;;;;3.03;1.35;;;;;;;10.31;82.96;100265.94;4998070;28;20050;-53
2021/12/12 08:29:38;;;;;;;2.78;1.85;;;;;;;10.35;82.90;100266.78;5006458;28;20039;-56
2021/12/12 08:32:08;;;;;;;2.28;1.23;;;;;;;10.38;82.42;100266.81;5001324;28;20865;-57
2021/12/12 08:34:53;;;;;;;2.65;1.65;;;;;;;10.48;82.11;100281.53;4993499;28;20122;-55
2021/12/12 08:37:19;;;;;;;4.38;1.30;;;;;;;10.56;83.05;100281.53;4998010;28;20038;-58
2021/12/12 08:39:48;;;;;;;2.70;1.05;;;;;;;10.61;82.96;100286.72;5005355;28;20701;-56
2021/12/12 08:42:15;;;;;;;3.28;1.48;;;;;;;10.63;82.48;100293.63;5001357;28;20042;-59
2021/12/12 08:44:41;;;;;;;2.67;1.40;;;;;;;10.68;82.85;100296.25;5002545;28;20536;-56
2021/12/12 08:47:12;;;;;;;1.95;1.10;;;;;;;10.73;82.26;100293.63;5005410;28;20100;-52
2021/12/12 08:49:41;;;;;;;2.25;1.50;;;;;;;10.76;82.11;100307.47;5001660;28;20049;-54
2021/12/12 08:52:13;;;;;;;5.47;1.50;;;;;;;10.78;81.87;100308.31;5002098;28;20739;-58
2021/12/12 08:54:42;;;;;;;4.25;1.00;;;;;;;10.85;81.94;100305.72;5002668;28;20045;-53
2021/12/12 08:57:33;;;;;;;2.53;0.93;;;;;;;10.92;81.99;100310.06;5006404;28;21362;-58
2021/12/12 09:00:22;;;;;;;5.45;1.90;;;;;;;10.99;82.04;100314.38;5002307;28;20081;-55
2021/12/12 09:02:51;;;;;;;7.32;2.90;;;;;;;11.05;82.64;100319.53;4998355;28;20100;-59
2021/12/12 09:05:23;;;;;;;5.05;2.20;;;;;;;11.07;82.28;100316.13;4999647;28;20096;-56
2021/12/12 09:08:14;;;;;;;6.63;2.38;;;;;;;11.29;82.42;100319.53;4991691;28;20038;-55
2021/12/12 09:10:47;;;;;;;6.20;3.42;;;;;;;11.59;82.05;100316.88;4997697;28;20418;-56
2021/12/12 09:13:20;;;;;;;5.68;1.60;;;;;;;12.18;80.67;100320.16;5001918;28;20050;-58
2021/12/12 09:15:58;;;;;;;3.60;1.35;;;;;;;12.44;79.57;100313.97;5000816;28;20661;-51
2021/12/12 09:18:31;;;;;;;3.63;1.48;;;;;;;12.65;78.72;100316.41;4997436;28;20073;-58
2021/12/12 09:21:07;;;;;;;6.70;2.13;;;;;;;13.09;79.86;100328.22;5005306;28;20057;-57
2021/12/12 09:23:43;;;;;;;6.80;1.75;;;;;;;13.39;78.45;100334.88;5004153;28;20050;-57
2021/12/12 09:26:18;;;;;;;2.80;1.13;;;;;;;13.43;77.52;100334.81;5005083;28;20092;-59
2021/12/12 09:28:53;;;;;;;3.10;1.38;;;;;;;13.41;76.84;100333.13;5003550;28;20050;-55
2021/12/12 09:31:28;;;;;;;5.18;1.00;;;;;;;13.83;77.19;100341.38;4999138;28;20046;-53
2021/12/12 09:34:01;;;;;;;6.15;1.65;;;;;;;14.45;76.79;100344.09;4997863;28;20052;-57
2021/12/12 09:36:37;;;;;;;3.20;1.30;;;;;;;15.09;74.72;100344.00;4997016;28;20050;-60
2021/12/12 09:39:10;;;;;;;5.22;2.15;;;;;;;15.80;73.70;100343.59;5003313;28;20049;-58
2021/12/12 09:42:15;;;;;;;5.95;2.15;;;;;;;16.41;70.98;100345.84;5006824;28;20080;-58
2021/12/12 09:45:11;;;;;;;4.45;1.17;;;;;;;16.83;70.24;100355.31;4996757;28;20077;-57
2021/12/12 09:51:14;;;;;;;2.75;0.88;;;;;;;17.44;66.55;100353.88;5000192;28;20057;-56
2021/12/12 09:51:29;;;;;;;2.13;1.02;;;;;;;18.08;67.32;100361.75;4993616;28;20089;-54
2021/12/12 09:54:13;;;;;;;1.85;0.57;;;;;;;18.15;64.71;100365.06;4996784;28;20216;-56
2021/12/12 09:57:07;;;;;;;2.35;0.82;;;;;;;18.48;66.46;100368.44;5011362;28;20054;-55
2021/12/12 10:00:00;;;;;;;4.03;2.67;;;;;;;18.95;64.30;100366.13;4999897;28;20444;-57
2021/12/12 10:03:07;;;;;;;2.28;1.05;;;;;;;18.89;63.56;100370.66;4995646;28;20045;-55
2021/12/12 10:06:03;;;;;;;2.40;1.65;;;;;;;18.44;61.81;100368.59;5004941;28;20057;-57
2021/12/12 10:08:43;;;;;;;1.80;0.70;;;;;;;17.90;62.62;100374.44;4981323;28;20105;-55
2021/12/12 10:11:33;;;;;;;3.30;2.08;;;;;;;17.92;63.53;100380.53;4994247;28;20362;-56
2021/12/12 10:14:07;;;;;;;2.70;0.68;;;;;;;18.60;64.34;100382.06;4996493;28;20041;-57
2021/12/12 10:16:39;;;;;;;2.15;1.05;;;;;;;19.18;62.81;100388.16;4994630;28;20049;-55
2021/12/12 10:19:45;;;;;;;2.53;0.85;;;;;;;19.27;62.79;100386.09;5009448;28;20107;-55
2021/12/12 10:22:36;;;;;;;1.60;0.60;;;;;;;19.84;61.57;100387.66;4992160;28;20719;-55
2021/12/12 10:25:14;;;;;;;2.35;1.92;;;;;;;20.36;58.25;100388.44;4996910;28;20625;-55
2021/12/12 10:27:53;;;;;;;5.80;2.60;;;;;;;20.57;58.79;100396.41;4999052;28;20044;-56
2021/12/12 10:30:27;;;;;;;6.75;2.03;;;;;;;20.02;57.79;100395.78;4999247;28;20077;-57
2021/12/12 10:33:09;;;;;;;3.25;1.13;;;;;;;19.09;58.34;100397.19;5004189;28;20096;-55
2021/12/12 10:35:42;;;;;;;2.33;0.98;;;;;;;18.39;59.37;100410.69;5002691;28;20141;-52
2021/12/12 10:38:15;;;;;;;3.47;1.33;;;;;;;17.59;61.14;100402.34;5001601;28;20045;-53
2021/12/12 10:40:48;;;;;;;1.40;0.70;;;;;;;17.03;62.23;100415.94;4998334;28;20069;-55
2021/12/12 10:43:22;;;;;;;3.95;0.90;;;;;;;16.59;63.27;100416.94;4998549;28;20091;-55
2021/12/12 10:45:58;;;;;;;4.63;1.63;;;;;;;16.16;64.16;100408.22;5002865;28;20405;-55
2021/12/12 10:48:34;;;;;;;4.20;1.10;;;;;;;15.85;65.18;100409.66;5005573;28;20050;-54
2021/12/12 10:51:03;;;;;;;;;;;;;;;15.59;66.32;100411.00;5002476;28;20531;-55
2021/12/12 10:53:40;;;;;;;1.80;0.70;;;;;;;15.58;66.17;100409.28;5010658;28;19922;-56
2021/12/12 10:56:22;;;;;;;2.70;0.70;;;;;;;15.36;66.60;100403.56;5006109;28;20084;-54
2021/12/12 10:58:56;;;;;;;3.50;0.95;;;;;;;15.29;67.25;100397.59;4997014;28;20042;-56
2021/12/12 11:01:28;;;;;;;3.55;1.05;;;;;;;15.29;67.38;100394.97;5004891;28;20516;-54
2021/12/12 11:04:10;;;;;;;2.30;1.13;;;;;;;15.18;67.00;100394.28;5001509;28;20080;-55
2021/12/12 11:06:44;;;;;;;2.40;0.65;;;;;;;15.18;67.63;100391.69;5005530;28;20049;-57
2021/12/12 11:09:20;;;;;;;1.60;0.75;;;;;;;15.05;67.82;100404.94;5011212;28;20050;-56
2021/12/12 11:11:55;;;;;;;2.92;1.00;;;;;;;14.93;67.94;100402.50;5004447;28;20501;-54
2021/12/12 11:14:27;;;;;;;1.77;0.57;;;;;;;14.83;68.87;100407.84;5000286;28;20058;-56
2021/12/12 11:17:00;;;;;;;2.00;0.65;;;;;;;14.72;67.94;100407.09;4999843;28;20046;-55
2021/12/12 11:19:44;;;;;;;1.85;0.63;;;;;;;14.59;68.75;100416.88;5000026;28;20050;-57
2021/12/12 11:22:17;;;;;;;3.03;1.17;;;;;;;14.47;69.44;100415.28;5002323;28;20061;-57
2021/12/12 11:24:49;;;;;;;3.30;0.95;;;;;;;14.38;69.82;100427.53;4999998;28;20420;-57
2021/12/12 11:27:23;;;;;;;1.73;1.08;;;;;;;14.32;69.63;100419.78;5004966;28;20054;-55
2021/12/12 11:30:00;;;;;;;1.13;0.88;;;;;;;14.35;70.18;100416.28;5000383;28;20049;-56
2021/12/12 11:32:34;;;;;;;2.33;0.60;;;;;;;14.32;70.37;100414.56;5003326;28;20053;-57
2021/12/12 11:35:05;;;;;;;1.60;0.70;;;;;;;14.27;69.88;100416.38;4999047;28;20062;-54
2021/12/12 11:37:57;;;;;;;2.55;0.65;;;;;;;14.14;70.25;100418.28;5003496;28;20100;-55
2021/12/12 11:40:39;;;;;;;2.22;0.52;;;;;;;14.12;70.17;100413.06;5005961;28;20050;-55
2021/12/12 11:43:33;;;;;;;1.13;0.77;;;;;;;14.04;69.90;100412.31;5004572;28;20124;-54
2021/12/12 11:46:11;;;;;;;3.42;0.93;;;;;;;13.98;70.11;100413.25;4998509;28;20066;-56
2021/12/12 11:49:01;;;;;;;2.33;0.52;;;;;;;13.97;70.69;100415.84;5002988;28;20046;-56
2021/12/12 11:51:39;;;;;;;1.58;0.77;;;;;;;13.97;70.61;100421.06;4999756;28;20528;-57
2021/12/12 11:54:34;;;;;;;1.67;0.98;;;;;;;13.94;71.18;100416.75;5007919;28;20053;-54
2021/12/12 11:57:09;;;;;;;1.58;0.35;;;;;;;13.95;70.96;100415.88;4995727;28;20050;-54
2021/12/12 11:59:58;;;;;;;2.63;0.55;;;;;;;13.91;70.43;100410.75;4997681;28;20128;-57
2021/12/12 12:02:41;;;;;;;2.20;0.43;;;;;;;13.85;70.78;100420.31;4997115;28;20054;-52
2021/12/12 12:05:24;;;;;;;2.45;0.50;;;;;;;13.82;71.28;100429.91;4993397;28;20070;-51
2021/12/12 12:08:08;;;;;;;1.55;0.60;;;;;;;13.77;71.47;100418.69;5004689;28;20104;-56
2021/12/12 12:10:46;;;;;;;2.45;0.90;;;;;;;13.75;71.52;100421.31;5002185;28;20109;-55
2021/12/12 12:13:30;;;;;;;3.25;0.90;;;;;;;13.72;71.40;100423.94;4996106;28;20193;-56